Briefing drone pour Vauvert

Rechercher une autre localisation

Conditions de vol :


Nous sommes le : Mercredi 24 avril 2024
Il est 19:15 UTC (21:15 LT)

Lever de soleil : 04:17 UTC (06:17 LT)
Coucher de soleil : 19:03 UTC (21:03 LT)

Météo

L'essentiel des conditions de vol

VIGILANCE MÉTÉO FRANCE - Gard (30)
Pas de vigilances particulieres
METAR de LFTW
LFTW 241900Z AUTO 33009KT CAVOK 12/00 Q1012 NOSIG

Date d'émission: 24/04/2024
Heure d'émission: 19:00 UTC
Vent: 330° pour 9 KT (17 km/h)
Visibilité horizontale: > 10 km
Plafond : Plafond et visibilité OK (CAVOK)
Température: 12 °C
Point de rosée: 0 °C
Humidité: 44%
Pression (QNH): 1012 hPa
Conditions: Pas de changement dans les 2 heures (NOSIG)
TAF de LFTW
LFTW 241902Z 2419/2515 CNL

Conditions prévues :

Heure d'émission : Bulletin éffectué le 24 à 19:00 UTC
Prévision : Valide du 24 a 19:00 UTC au 25 a 15:00 UTC
Nuages : à 0ft (0 m)
WEBCAM POUR VAUVERT

Réglementation

Voler en sécurité

CARTES AERONAUTIQUE 1/500.000
CARTE AZBA (Reseau basse altitude)
CARTES VAC (LFTW)
SUP AIP




Chargement des AIP...
NOTAM (VAUVERT + Terrain à proximité / FIR )




Chargement des NOTAMS...
CONTACT PREFECTURE 30
Gard (30) : [email protected]


Avertissement : Les données mises à disposition sont indicatives. Oxygène Drone ne pourra être tenu responsable de dégâts causés aux biens et aux personnes.